createdAt,value
2018-12-16T00:00:01.484Z,76.55
2018-12-16T00:05:01.775Z,76.41
2018-12-16T00:10:02.203Z,76.61
2018-12-16T00:15:01.518Z,76.68
2018-12-16T00:20:01.757Z,76.84
2018-12-16T00:25:02.063Z,76.51
2018-12-16T00:30:01.290Z,76.45
2018-12-16T00:35:01.519Z,76.48
2018-12-16T00:40:01.748Z,76.54
2018-12-16T00:45:02.026Z,76.8
2018-12-16T00:50:01.255Z,76.71
2018-12-16T00:55:01.483Z,76.94
2018-12-16T01:00:01.696Z,76.94
2018-12-16T01:05:02.006Z,76.92
2018-12-16T01:10:01.227Z,76.87
2018-12-16T01:15:01.488Z,76.81
2018-12-16T01:20:01.726Z,76.64
2018-12-16T01:25:02.038Z,76.76
2018-12-16T01:30:01.268Z,76.79
2018-12-16T01:35:01.575Z,77.05
2018-12-16T01:40:01.844Z,77.17
2018-12-16T01:45:02.135Z,77.68
2018-12-16T01:50:01.445Z,78.55
2018-12-16T01:55:01.881Z,80.22
2018-12-16T02:00:02.163Z,83.36
2018-12-16T02:05:01.547Z,87.39
2018-12-16T02:10:01.814Z,89.13
2018-12-16T02:15:03.512Z,90.1
2018-12-16T02:20:01.856Z,90.51
2018-12-16T02:25:01.543Z,90.97
2018-12-16T02:30:01.778Z,91.44
2018-12-16T02:35:02.054Z,92.27
2018-12-16T02:40:01.270Z,92.8
2018-12-16T02:45:01.496Z,93.05
2018-12-16T02:50:01.745Z,93.49
2018-12-16T02:55:02.065Z,94.03
2018-12-16T03:00:01.355Z,94.3
2018-12-16T03:05:01.588Z,94.51
2018-12-16T03:10:01.829Z,95.08
2018-12-16T03:15:02.246Z,95.78
2018-12-16T03:20:01.506Z,96.3
2018-12-16T03:25:01.849Z,96.41
2018-12-16T03:30:02.226Z,96.09
2018-12-16T03:35:01.527Z,96.09
2018-12-16T03:40:02.007Z,95.83
2018-12-16T03:45:01.296Z,95.56
2018-12-16T03:50:01.602Z,95.28
2018-12-16T03:55:02.037Z,95.15
2018-12-16T04:00:01.607Z,95.23
2018-12-16T04:05:01.930Z,95.07
2018-12-16T04:10:01.191Z,94.83
2018-12-16T04:15:01.601Z,94.89
2018-12-16T04:20:01.945Z,94.91
2018-12-16T04:25:01.206Z,95.27
2018-12-16T04:30:01.503Z,94.93
2018-12-16T04:35:01.792Z,94.52
2018-12-16T04:40:02.048Z,94.15
2018-12-16T04:45:01.300Z,94.12
2018-12-16T04:50:01.547Z,93.92
2018-12-16T04:55:01.839Z,93.65
2018-12-16T05:00:02.078Z,93.33
2018-12-16T05:05:01.335Z,93.39
2018-12-16T05:10:01.634Z,93.31
2018-12-16T05:15:01.943Z,93.62
2018-12-16T05:20:01.234Z,94.26
2018-12-16T05:25:01.503Z,94.94
2018-12-16T05:30:01.756Z,94.67
2018-12-16T05:35:02.048Z,94.15
2018-12-16T05:40:01.386Z,93.68
2018-12-16T05:45:01.685Z,93.08
2018-12-16T05:50:01.906Z,92.59
2018-12-16T05:55:02.147Z,92.38
2018-12-16T06:00:01.386Z,91.57
2018-12-16T06:05:01.660Z,91.48
2018-12-16T06:10:01.958Z,91.6
2018-12-16T06:15:01.249Z,91.48
2018-12-16T06:20:01.547Z,91.57
2018-12-16T06:25:01.861Z,91.72
2018-12-16T06:30:02.135Z,91.74
2018-12-16T06:35:01.416Z,91.64
2018-12-16T06:40:01.676Z,91.9
2018-12-16T06:45:01.929Z,91.91
2018-12-16T06:50:01.191Z,91.58
2018-12-16T06:55:01.455Z,91.8
2018-12-16T07:00:01.745Z,91.6
2018-12-16T07:05:02.005Z,91.89
2018-12-16T07:10:01.260Z,91.76
2018-12-16T07:15:01.536Z,91.88
2018-12-16T07:20:01.858Z,91.77
2018-12-16T07:25:02.133Z,91.9
2018-12-16T07:30:01.422Z,91.9
2018-12-16T07:35:01.749Z,92.04
2018-12-16T07:40:02.009Z,91.81
2018-12-16T07:45:01.354Z,91.8
2018-12-16T07:50:01.687Z,91.83
2018-12-16T07:55:02.098Z,91.62
2018-12-16T08:00:01.504Z,91.9
2018-12-16T08:05:01.893Z,91.85
2018-12-16T08:10:01.209Z,91.85
2018-12-16T08:15:01.506Z,91.58
2018-12-16T08:20:01.821Z,91.76
2018-12-16T08:25:02.062Z,91.86
2018-12-16T08:30:01.342Z,91.81
2018-12-16T08:35:01.627Z,91.97
2018-12-16T08:40:01.926Z,92.17
2018-12-16T08:45:01.190Z,92.38
2018-12-16T08:50:01.481Z,92.56
2018-12-16T08:55:01.757Z,92.52
2018-12-16T09:00:02.038Z,92.71
2018-12-16T09:05:01.288Z,92.96
2018-12-16T09:10:01.556Z,93.19
2018-12-16T09:15:01.832Z,93.3
2018-12-16T09:20:02.149Z,93.48
2018-12-16T09:25:01.402Z,93.55
2018-12-16T09:30:01.698Z,93.61
2018-12-16T09:35:01.991Z,93.62
2018-12-16T09:40:01.273Z,93.46
2018-12-16T09:45:01.572Z,93.33
2018-12-16T09:50:01.844Z,93.33
2018-12-16T09:55:02.090Z,93.19
2018-12-16T10:00:01.374Z,93.15
2018-12-16T10:05:01.638Z,92.95
2018-12-16T10:10:01.892Z,92.84
2018-12-16T10:15:02.146Z,92.75
2018-12-16T10:20:01.408Z,92.52
2018-12-16T10:25:01.680Z,92.33
2018-12-16T10:30:01.940Z,92.41
2018-12-16T10:35:01.239Z,92.16
2018-12-16T10:40:01.637Z,92.04
2018-12-16T10:45:01.928Z,92.08
2018-12-16T10:50:01.182Z,92.08
2018-12-16T10:55:01.494Z,92.08
2018-12-16T11:00:01.795Z,92.02
2018-12-16T11:05:02.049Z,92.13
2018-12-16T11:10:01.299Z,92.09
2018-12-16T11:15:01.603Z,91.94
2018-12-16T11:20:01.905Z,92.17
2018-12-16T11:25:06.139Z,92.58
2018-12-16T11:30:01.410Z,92.8
2018-12-16T11:35:01.744Z,92.7
2018-12-16T11:40:01.980Z,92.78
2018-12-16T11:45:01.219Z,92.75
2018-12-16T11:50:01.550Z,92.72
2018-12-16T11:55:01.851Z,92.64
2018-12-16T12:00:02.089Z,92.64
2018-12-16T12:05:01.377Z,92.75
2018-12-16T12:10:01.631Z,93.05
2018-12-16T12:15:01.918Z,93.16
2018-12-16T12:20:01.186Z,93.09
2018-12-16T12:25:01.468Z,93.12
2018-12-16T12:30:01.748Z,93.16
2018-12-16T12:35:02.040Z,93.13
2018-12-16T12:40:01.278Z,93.03
2018-12-16T12:45:01.556Z,93.01
2018-12-16T12:50:01.829Z,92.98
2018-12-16T12:55:02.092Z,92.88
2018-12-16T13:00:01.345Z,93.05
2018-12-16T13:05:01.612Z,92.88
2018-12-16T13:10:01.873Z,93.17
2018-12-16T13:15:02.191Z,93
2018-12-16T13:20:01.463Z,93.06
2018-12-16T13:25:01.742Z,92.76
2018-12-16T13:30:01.998Z,92.93
2018-12-16T13:35:01.282Z,92.9
2018-12-16T13:40:01.544Z,93.06
2018-12-16T13:45:01.803Z,92.96
2018-12-16T13:50:02.147Z,93.19
2018-12-16T13:55:01.407Z,93.35
2018-12-16T14:00:01.691Z,93.41
2018-12-16T14:05:02.039Z,93.47
2018-12-16T14:10:01.307Z,93.73
2018-12-16T14:15:01.583Z,93.7
2018-12-16T14:20:01.964Z,93.74
2018-12-16T14:25:01.195Z,94.09
2018-12-16T14:30:01.496Z,94.3
2018-12-16T14:35:01.764Z,94.65
2018-12-16T14:40:02.024Z,94.93
2018-12-16T14:45:01.258Z,95.36
2018-12-16T14:50:01.566Z,95.24
2018-12-16T14:55:01.850Z,95.22
2018-12-16T15:00:02.088Z,95.15
2018-12-16T15:05:01.443Z,95.51
2018-12-16T15:10:01.761Z,95.75
2018-12-16T15:15:01.997Z,96.11
2018-12-16T15:20:01.273Z,96.37
2018-12-16T15:25:01.559Z,96.76
2018-12-16T15:30:01.859Z,97.04
2018-12-16T15:35:02.098Z,97.2
2018-12-16T15:40:01.398Z,97.34
2018-12-16T15:45:01.730Z,97.34
2018-12-16T15:50:02.021Z,97.3
2018-12-16T15:55:01.263Z,97.28
2018-12-16T16:00:01.529Z,97.42
2018-12-16T16:05:01.813Z,97.56
2018-12-16T16:10:02.046Z,97.49
2018-12-16T16:15:01.277Z,97.35
2018-12-16T16:20:01.553Z,97.17
2018-12-16T16:25:01.824Z,97.23
2018-12-16T16:30:02.075Z,97.42
2018-12-16T16:35:01.357Z,97.71
2018-12-16T16:40:01.651Z,97.82
2018-12-16T16:45:02.011Z,97.98
2018-12-16T16:50:01.281Z,98.11
2018-12-16T16:55:01.568Z,98.12
2018-12-16T17:00:01.878Z,96.45
2018-12-16T17:05:02.154Z,94.81
2018-12-16T17:10:01.430Z,98.33
2018-12-16T17:15:01.760Z,98.36
2018-12-16T17:20:02.047Z,95.04
2018-12-16T17:25:01.281Z,96.89
2018-12-16T17:30:02.377Z,98.04
2018-12-16T17:35:01.660Z,98.57
2018-12-16T17:40:01.939Z,98.66
2018-12-16T17:45:01.225Z,98.53
2018-12-16T17:50:01.512Z,95.35
2018-12-16T17:55:01.792Z,97.11
2018-12-16T18:00:02.040Z,98.04
2018-12-16T18:05:01.368Z,98.31
2018-12-16T18:10:01.658Z,98.48
2018-12-16T18:15:01.952Z,98.24
2018-12-16T18:20:01.410Z,95.1
2018-12-16T18:25:01.723Z,95.07
2018-12-16T18:30:01.985Z,97.07
2018-12-16T18:35:01.278Z,98.05
2018-12-16T18:40:01.585Z,98.43
2018-12-16T18:45:01.863Z,98.43
2018-12-16T18:50:02.097Z,95.21
2018-12-16T18:55:01.352Z,97.02
2018-12-16T19:00:01.660Z,97.92
2018-12-16T19:05:01.924Z,98.27
2018-12-16T19:10:01.174Z,98.22
2018-12-16T19:15:01.451Z,98.49
2018-12-16T19:20:01.760Z,95.47
2018-12-16T19:25:02.008Z,97.24
2018-12-16T19:30:01.270Z,98.19
2018-12-16T19:35:01.590Z,98.69
2018-12-16T19:40:01.895Z,95.42
2018-12-16T19:45:02.117Z,98.11
2018-12-16T19:50:01.370Z,98.34
2018-12-16T19:55:01.640Z,98.63
2018-12-16T20:00:01.962Z,97.27
2018-12-16T20:05:01.322Z,98.27
2018-12-16T20:10:01.605Z,98.6
2018-12-16T20:15:01.894Z,97.21
2018-12-16T20:20:02.146Z,98.37
2018-12-16T20:25:01.410Z,97.5
2018-12-16T20:30:01.704Z,98.6
2018-12-16T20:35:01.927Z,95.92
2018-12-16T20:40:01.173Z,98.6
2018-12-16T20:45:01.417Z,95.8
2018-12-16T20:50:01.638Z,98.75
2018-12-16T20:55:01.856Z,96.28
2018-12-16T21:00:02.101Z,99.02
2018-12-16T21:05:01.326Z,96.31
2018-12-16T21:10:01.578Z,99.13
2018-12-16T21:15:02.020Z,96.28
2018-12-16T21:20:01.257Z,98.37
2018-12-16T21:25:01.463Z,99.29
2018-12-16T21:30:01.702Z,98.6
2018-12-16T21:35:01.942Z,98.51
2018-12-16T21:40:01.179Z,98.42
2018-12-16T21:45:01.535Z,98.26
2018-12-16T21:50:01.763Z,98.36
2018-12-16T21:55:02.022Z,98.43
2018-12-16T22:00:01.247Z,96.49
2018-12-16T22:05:01.475Z,96.5
2018-12-16T22:10:01.686Z,96.69
2018-12-16T22:15:01.927Z,96.76
2018-12-16T22:20:01.151Z,96.7
2018-12-16T22:25:01.371Z,96.67
2018-12-16T22:30:01.608Z,96.39
2018-12-16T22:35:01.901Z,96.44
2018-12-16T22:40:02.376Z,98.4
2018-12-16T22:45:01.713Z,98.55
2018-12-16T22:50:01.945Z,98.56
2018-12-16T22:55:01.205Z,98.58
2018-12-16T23:00:01.440Z,98.58
2018-12-16T23:05:01.689Z,98.6
2018-12-16T23:10:01.944Z,98.52
2018-12-16T23:15:01.186Z,98.39
2018-12-16T23:20:01.429Z,98.52
2018-12-16T23:25:01.693Z,98.31
2018-12-16T23:30:01.971Z,98.23
2018-12-16T23:35:01.267Z,98.37
2018-12-16T23:40:01.546Z,98.32
2018-12-16T23:45:01.825Z,98.39
2018-12-16T23:50:02.097Z,98.5
2018-12-16T23:55:01.351Z,98.53
